Time;durP1;ratioP1;P1;durP2;ratioP2;P2;SDS_P1;SDS_P2;PMS_P1;PMS_P2;Temp;Humidity;BMP_temperature;BMP_pressure;BME280_temperature;BME280_humidity;BME280_pressure;Samples;Min_cycle;Max_cycle;Signal;HPM_P1;HPM_P2
2021/06/14 00:01:28;;;;;;;9.27;6.10;;;15.50;99.90;;;;;;5082910;28;20414;-65
2021/06/14 00:03:57;;;;;;;7.00;5.80;;;15.50;99.90;;;;;;5082914;28;20172;-65
2021/06/14 00:06:25;;;;;;;8.07;6.43;;;15.50;99.90;;;;;;5080110;28;20185;-65
2021/06/14 00:08:54;;;;;;;9.47;5.63;;;15.40;99.90;;;;;;5079912;28;20208;-66
2021/06/14 00:11:24;;;;;;;7.07;6.27;;;15.40;99.90;;;;;;5073090;28;20268;-65
2021/06/14 00:13:52;;;;;;;8.73;6.20;;;15.30;99.90;;;;;;5077355;28;20573;-65
2021/06/14 00:16:21;;;;;;;6.97;6.27;;;15.20;99.90;;;;;;5057658;28;20188;-65
2021/06/14 00:18:50;;;;;;;7.60;6.80;;;15.20;99.90;;;;;;5079770;28;20180;-65
2021/06/14 00:21:18;;;;;;;6.33;5.73;;;15.20;99.90;;;;;;5082194;28;20191;-64
2021/06/14 00:23:47;;;;;;;8.17;6.47;;;15.10;99.90;;;;;;5062017;28;20227;-66
2021/06/14 00:26:16;;;;;;;11.80;7.00;;;15.10;99.90;;;;;;5085669;28;20187;-65
2021/06/14 00:28:46;;;;;;;12.23;6.90;;;15.00;99.90;;;;;;5077566;28;20189;-66
2021/06/14 00:31:15;;;;;;;9.97;6.53;;;15.00;99.90;;;;;;5057042;28;20195;-65
2021/06/14 00:33:43;;;;;;;11.57;7.17;;;14.90;99.90;;;;;;5076970;28;20242;-66
2021/06/14 00:36:12;;;;;;;10.47;7.00;;;15.00;99.90;;;;;;5078872;28;20293;-65
2021/06/14 00:38:40;;;;;;;9.90;7.00;;;14.90;99.90;;;;;;5079517;28;20188;-65
2021/06/14 00:41:11;;;;;;;12.63;7.37;;;14.90;99.90;;;;;;5083053;28;20187;-65
2021/06/14 00:43:40;;;;;;;8.90;7.20;;;14.80;99.90;;;;;;5081561;28;20208;-66
2021/06/14 00:46:10;;;;;;;8.60;7.03;;;14.80;99.90;;;;;;5084148;28;20215;-65
2021/06/14 00:48:39;;;;;;;10.77;7.60;;;14.70;99.90;;;;;;5081940;28;20267;-65
2021/06/14 00:51:09;;;;;;;9.90;7.73;;;14.70;99.90;;;;;;5083459;28;20414;-65
2021/06/14 00:53:39;;;;;;;10.17;6.87;;;14.60;99.90;;;;;;5078364;28;20181;-65
2021/06/14 00:56:10;;;;;;;11.73;7.50;;;14.60;99.90;;;;;;5074332;28;20356;-65
2021/06/14 00:58:40;;;;;;;12.10;7.30;;;14.60;99.90;;;;;;5078935;28;20192;-66
2021/06/14 01:01:11;;;;;;;12.13;8.03;;;14.50;99.90;;;;;;5075926;28;20211;-65
2021/06/14 01:03:39;;;;;;;12.23;8.13;;;14.50;99.90;;;;;;5079329;28;20399;-66
2021/06/14 01:06:10;;;;;;;10.17;7.73;;;14.40;99.90;;;;;;5078689;28;20388;-65
2021/06/14 01:08:40;;;;;;;13.33;8.23;;;14.40;99.90;;;;;;5083117;28;20180;-65
2021/06/14 01:11:14;;;;;;;14.07;8.33;;;14.30;99.90;;;;;;5058909;28;20184;-66
2021/06/14 01:13:50;;;;;;;10.70;7.97;;;14.30;99.90;;;;;;5075737;28;20241;-66
2021/06/14 01:16:29;;;;;;;12.00;8.17;;;14.20;99.90;;;;;;5079896;28;20188;-65
2021/06/14 01:19:04;;;;;;;10.00;8.03;;;14.20;99.90;;;;;;5081642;28;20188;-65
2021/06/14 01:21:38;;;;;;;12.03;7.67;;;14.20;99.90;;;;;;5080496;28;20241;-64
2021/06/14 01:24:38;;;;;;;10.80;8.87;;;14.10;99.90;;;;;;5075759;28;20212;-65
2021/06/14 01:27:30;;;;;;;11.13;8.67;;;14.10;99.90;;;;;;5080691;28;20211;-65
2021/06/14 01:29:59;;;;;;;13.33;8.73;;;14.10;99.90;;;;;;5077795;28;20253;-65
2021/06/14 01:32:29;;;;;;;10.27;8.10;;;14.10;99.90;;;;;;5082741;28;20188;-65
2021/06/14 01:34:57;;;;;;;13.07;8.67;;;14.10;99.90;;;;;;5077656;28;20247;-65
2021/06/14 01:37:27;;;;;;;13.97;8.20;;;14.00;99.90;;;;;;5081356;28;20176;-65
2021/06/14 01:39:57;;;;;;;10.60;7.60;;;14.00;99.90;;;;;;5082422;28;20420;-65
2021/06/14 01:42:27;;;;;;;13.67;8.53;;;13.90;99.90;;;;;;5082926;28;20188;-65
2021/06/14 01:44:56;;;;;;;9.10;8.10;;;13.90;99.90;;;;;;5082380;28;20226;-65
2021/06/14 01:47:25;;;;;;;13.80;8.87;;;13.90;99.90;;;;;;5083356;28;20195;-65
2021/06/14 01:49:54;;;;;;;11.90;8.03;;;13.90;99.90;;;;;;5081043;28;20384;-65
2021/06/14 01:52:23;;;;;;;11.17;7.90;;;13.80;99.90;;;;;;5079605;28;20180;-65
2021/06/14 01:54:53;;;;;;;10.27;8.00;;;13.80;99.90;;;;;;5078394;28;20229;-65
2021/06/14 01:57:22;;;;;;;13.80;8.40;;;13.80;99.90;;;;;;5081843;28;20364;-65
2021/06/14 01:59:53;;;;;;;12.30;8.77;;;13.80;99.90;;;;;;5081789;28;20389;-65
2021/06/14 02:02:22;;;;;;;11.50;8.03;;;13.80;99.90;;;;;;5077637;28;20234;-65
2021/06/14 02:04:52;;;;;;;10.23;7.57;;;13.70;99.90;;;;;;5079472;28;20199;-65
2021/06/14 02:07:21;;;;;;;12.77;8.60;;;13.60;99.90;;;;;;5080494;28;20237;-65
2021/06/14 02:09:50;;;;;;;10.57;7.77;;;13.60;99.90;;;;;;5081024;28;20295;-65
2021/06/14 02:12:19;;;;;;;11.43;7.90;;;13.60;99.90;;;;;;5083388;28;20180;-65
2021/06/14 02:14:48;;;;;;;12.67;8.13;;;13.50;99.90;;;;;;5084498;28;20196;-66
2021/06/14 02:17:21;;;;;;;12.83;7.77;;;13.60;99.90;;;;;;5080391;28;20180;-65
2021/06/14 02:19:51;;;;;;;10.07;7.20;;;13.50;99.90;;;;;;5082866;28;20215;-65
2021/06/14 02:22:20;;;;;;;14.90;7.90;;;13.40;99.90;;;;;;5084837;28;20214;-65
2021/06/14 02:24:48;;;;;;;10.40;7.73;;;13.40;99.90;;;;;;5081643;28;20216;-65
2021/06/14 02:27:18;;;;;;;10.87;7.73;;;13.30;99.90;;;;;;5067729;28;20218;-66
2021/06/14 02:29:47;;;;;;;9.83;7.43;;;13.30;99.90;;;;;;5076991;28;20218;-65
2021/06/14 02:32:19;;;;;;;11.77;8.17;;;13.30;99.90;;;;;;5085588;28;20188;-65
2021/06/14 02:34:48;;;;;;;10.43;7.70;;;13.40;99.90;;;;;;5080828;28;20230;-65
2021/06/14 02:37:19;;;;;;;15.47;8.03;;;13.30;99.90;;;;;;5083787;28;20187;-65
2021/06/14 02:39:49;;;;;;;10.73;7.83;;;13.30;99.90;;;;;;5080405;28;20188;-65
2021/06/14 02:42:18;;;;;;;12.07;7.90;;;13.30;99.90;;;;;;5085310;28;20374;-65
2021/06/14 02:44:48;;;;;;;11.53;8.17;;;13.30;99.90;;;;;;5084139;28;20264;-65
2021/06/14 02:47:18;;;;;;;8.33;7.37;;;13.20;99.90;;;;;;5085880;28;20176;-65
2021/06/14 02:49:47;;;;;;;11.63;7.83;;;13.20;99.90;;;;;;5083486;28;20196;-65
2021/06/14 02:52:17;;;;;;;11.57;7.57;;;13.20;99.90;;;;;;5085420;28;20230;-65
2021/06/14 02:54:51;;;;;;;10.37;8.30;;;13.20;99.90;;;;;;5085269;28;20204;-65
2021/06/14 02:57:21;;;;;;;11.43;8.10;;;13.10;99.90;;;;;;5083937;28;20376;-65
2021/06/14 02:59:51;;;;;;;10.27;7.47;;;13.10;99.90;;;;;;5082889;28;20196;-65
2021/06/14 03:02:25;;;;;;;9.37;7.10;;;13.00;99.90;;;;;;5068430;28;20292;-65
2021/06/14 03:04:54;;;;;;;11.17;8.63;;;12.90;99.90;;;;;;5081161;28;20204;-65
2021/06/14 03:07:26;;;;;;;9.73;7.77;;;12.90;99.90;;;;;;5067096;28;20395;-65
2021/06/14 03:09:56;;;;;;;12.33;8.50;;;12.90;99.90;;;;;;5082627;28;20295;-65
2021/06/14 03:12:26;;;;;;;11.37;8.97;;;12.90;99.90;;;;;;5083474;28;20379;-65
2021/06/14 03:14:56;;;;;;;11.47;8.93;;;12.90;99.90;;;;;;5083855;28;20253;-65
2021/06/14 03:17:26;;;;;;;16.73;10.40;;;12.90;99.90;;;;;;5086648;28;20192;-65
2021/06/14 03:19:57;;;;;;;15.00;10.23;;;12.90;99.90;;;;;;5080010;28;20184;-65
2021/06/14 03:22:26;;;;;;;14.17;10.13;;;12.90;99.90;;;;;;5083422;28;20257;-65
2021/06/14 03:24:55;;;;;;;13.93;9.70;;;12.90;99.90;;;;;;5081082;28;20298;-65
2021/06/14 03:27:24;;;;;;;13.70;10.20;;;12.80;99.90;;;;;;5085427;28;20192;-65
2021/06/14 03:29:54;;;;;;;12.97;9.53;;;12.80;99.90;;;;;;5084588;28;20234;-65
2021/06/14 03:32:23;;;;;;;16.47;10.90;;;12.80;99.90;;;;;;5081787;28;20395;-65
2021/06/14 03:34:54;;;;;;;17.43;10.23;;;12.70;99.90;;;;;;5075011;28;20181;-65
2021/06/14 03:37:22;;;;;;;16.33;9.90;;;12.70;99.90;;;;;;5084428;28;20180;-65
2021/06/14 03:39:51;;;;;;;13.87;8.87;;;12.70;99.90;;;;;;5077302;28;20191;-65
2021/06/14 03:42:22;;;;;;;14.83;9.73;;;12.70;99.90;;;;;;5083736;28;20190;-64
2021/06/14 03:44:50;;;;;;;12.20;9.07;;;12.70;99.90;;;;;;5083216;28;20203;-65
2021/06/14 03:47:19;;;;;;;12.10;9.40;;;12.60;99.90;;;;;;5084261;28;20386;-65
2021/06/14 03:49:47;;;;;;;15.47;9.60;;;12.60;99.90;;;;;;5083522;28;20184;-65
2021/06/14 03:52:17;;;;;;;10.90;8.70;;;12.60;99.90;;;;;;5079593;28;20210;-65
2021/06/14 03:54:46;;;;;;;10.57;8.93;;;12.60;99.90;;;;;;5074772;28;20197;-65
2021/06/14 03:57:14;;;;;;;15.43;9.30;;;12.50;99.90;;;;;;5081830;28;20212;-65
2021/06/14 03:59:42;;;;;;;12.10;9.10;;;12.50;99.90;;;;;;5065522;28;20202;-65
2021/06/14 04:02:11;;;;;;;11.83;8.57;;;12.50;99.90;;;;;;5080622;28;20192;-65
2021/06/14 04:04:46;;;;;;;14.47;8.30;;;12.60;99.90;;;;;;5077257;28;20329;-65
2021/06/14 04:07:16;;;;;;;9.40;8.20;;;12.60;99.90;;;;;;5068092;28;20176;-65
2021/06/14 04:09:44;;;;;;;12.90;9.30;;;12.60;99.90;;;;;;5081777;28;20305;-65
2021/06/14 04:12:13;;;;;;;11.03;9.17;;;12.70;99.90;;;;;;5083443;28;20188;-66
2021/06/14 04:14:42;;;;;;;15.50;9.03;;;12.70;99.90;;;;;;5081097;28;20280;-66
2021/06/14 04:17:11;;;;;;;11.17;8.87;;;12.70;99.90;;;;;;5082488;28;20190;-66
2021/06/14 04:19:39;;;;;;;12.33;8.90;;;12.80;99.90;;;;;;5087532;28;20261;-66
2021/06/14 04:22:08;;;;;;;14.23;9.73;;;12.80;99.90;;;;;;5061222;28;20347;-66
2021/06/14 04:24:38;;;;;;;12.90;8.97;;;12.80;99.90;;;;;;5077235;28;20599;-65
2021/06/14 04:27:07;;;;;;;10.10;8.33;;;12.80;99.90;;;;;;5084933;28;20188;-66
2021/06/14 04:29:35;;;;;;;12.17;8.87;;;12.80;99.90;;;;;;5079882;28;21461;-65
2021/06/14 04:32:04;;;;;;;11.33;9.33;;;12.80;99.90;;;;;;5084786;28;20222;-66
2021/06/14 04:34:33;;;;;;;15.47;9.87;;;12.90;99.90;;;;;;5083522;28;20184;-65
2021/06/14 04:37:02;;;;;;;11.90;8.97;;;12.90;99.90;;;;;;5068462;28;20180;-66
2021/06/14 04:39:30;;;;;;;12.13;9.57;;;13.00;99.90;;;;;;5081617;28;20196;-65
2021/06/14 04:42:00;;;;;;;23.80;11.23;;;13.10;99.90;;;;;;5082999;28;20277;-65
2021/06/14 04:44:28;;;;;;;20.93;10.37;;;13.20;99.90;;;;;;5077998;28;20443;-66
2021/06/14 04:46:57;;;;;;;28.67;11.17;;;13.30;99.90;;;;;;5080252;28;20180;-65
2021/06/14 04:49:25;;;;;;;21.00;11.13;;;13.40;99.90;;;;;;5083694;28;20210;-65
2021/06/14 04:51:53;;;;;;;19.40;10.57;;;13.50;99.90;;;;;;5083757;28;20184;-66
2021/06/14 04:54:22;;;;;;;17.70;11.13;;;13.60;99.90;;;;;;5080299;28;20180;-66
2021/06/14 04:56:50;;;;;;;18.57;11.70;;;13.70;99.90;;;;;;5062307;28;20227;-66
2021/06/14 04:59:20;;;;;;;20.10;11.27;;;13.80;99.90;;;;;;5083257;28;20447;-66
2021/06/14 05:01:48;;;;;;;26.27;11.67;;;13.90;99.90;;;;;;5076303;28;20191;-65
2021/06/14 05:04:16;;;;;;;24.57;12.20;;;14.00;99.90;;;;;;5080990;28;21538;-65
2021/06/14 05:06:45;;;;;;;28.00;12.80;;;14.10;99.90;;;;;;5077805;28;20222;-66
2021/06/14 05:09:13;;;;;;;22.17;12.27;;;14.20;99.90;;;;;;5084788;28;20195;-66
2021/06/14 05:11:41;;;;;;;21.80;12.50;;;14.30;99.90;;;;;;5078224;28;20180;-65
2021/06/14 05:14:10;;;;;;;20.30;11.97;;;14.50;99.90;;;;;;5083229;28;20200;-65
2021/06/14 05:16:40;;;;;;;27.80;13.97;;;14.60;99.90;;;;;;5084162;28;20183;-66
2021/06/14 05:19:08;;;;;;;19.93;12.60;;;14.70;99.90;;;;;;5081917;28;20323;-65
2021/06/14 05:21:37;;;;;;;22.53;12.77;;;14.90;99.90;;;;;;5083827;28;20184;-65
2021/06/14 05:24:06;;;;;;;19.67;12.30;;;15.00;99.90;;;;;;5081162;28;20192;-66
2021/06/14 05:26:34;;;;;;;19.67;12.07;;;15.20;99.90;;;;;;5081707;28;20173;-66
2021/06/14 05:29:03;;;;;;;19.63;12.57;;;15.30;99.90;;;;;;5082875;28;20225;-66
2021/06/14 05:31:32;;;;;;;23.13;12.50;;;15.50;99.90;;;;;;5082503;28;20273;-66
2021/06/14 05:34:02;;;;;;;17.60;11.60;;;15.60;99.90;;;;;;5078943;28;20180;-65
2021/06/14 05:36:30;;;;;;;17.87;11.17;;;15.80;99.90;;;;;;5063162;28;20184;-66
2021/06/14 05:39:01;;;;;;;18.50;10.47;;;16.00;99.90;;;;;;5079145;28;20180;-65
2021/06/14 05:41:29;;;;;;;16.13;9.17;;;16.20;99.90;;;;;;5081040;28;20399;-66
2021/06/14 05:43:58;;;;;;;17.13;9.40;;;16.40;99.90;;;;;;5085077;28;20200;-66
2021/06/14 05:46:26;;;;;;;12.97;9.37;;;16.50;99.90;;;;;;5080760;28;20207;-66
2021/06/14 05:48:55;;;;;;;16.70;9.43;;;16.70;99.90;;;;;;5087231;28;20200;-66
2021/06/14 05:51:25;;;;;;;20.33;9.87;;;16.80;99.90;;;;;;5084102;28;20403;-66
2021/06/14 05:53:53;;;;;;;14.60;9.20;;;17.00;99.90;;;;;;5082084;28;20207;-66
2021/06/14 05:56:21;;;;;;;16.83;9.40;;;17.00;99.90;;;;;;5084096;28;20185;-66
2021/06/14 05:58:50;;;;;;;11.43;8.70;;;17.20;99.90;;;;;;5083100;28;20207;-66
2021/06/14 06:01:19;;;;;;;16.30;8.93;;;17.30;99.90;;;;;;5081617;28;20172;-66
2021/06/14 06:03:47;;;;;;;14.73;8.20;;;17.50;99.90;;;;;;5086025;28;20207;-66
2021/06/14 06:06:16;;;;;;;11.43;8.20;;;17.60;99.90;;;;;;5078754;28;20330;-66
2021/06/14 06:08:45;;;;;;;16.33;8.77;;;17.80;99.90;;;;;;5083600;28;20177;-66
2021/06/14 06:11:16;;;;;;;16.70;9.27;;;17.90;99.90;;;;;;5084578;28;20185;-66
2021/06/14 06:13:44;;;;;;;13.77;8.27;;;18.10;99.90;;;;;;5088584;28;20188;-66
2021/06/14 06:16:13;;;;;;;16.60;8.33;;;18.30;99.90;;;;;;5076033;28;20186;-66
2021/06/14 06:18:41;;;;;;;10.77;7.67;;;18.50;99.90;;;;;;5086889;28;20249;-65
2021/06/14 06:21:12;;;;;;;13.97;6.93;;;18.50;99.90;;;;;;5083183;28;20178;-66
2021/06/14 06:23:41;;;;;;;11.67;7.50;;;18.60;99.90;;;;;;5085710;28;20222;-66
2021/06/14 06:26:12;;;;;;;12.37;7.33;;;18.50;99.90;;;;;;5066151;28;20201;-66
2021/06/14 06:28:40;;;;;;;10.57;6.70;;;18.80;99.90;;;;;;5088407;28;20301;-66
2021/06/14 06:31:09;;;;;;;7.47;6.63;;;18.90;99.90;;;;;;5082784;28;20181;-66
2021/06/14 06:33:37;;;;;;;10.20;6.53;;;18.90;99.90;;;;;;5086471;28;20176;-65
2021/06/14 06:36:06;;;;;;;12.47;6.00;;;18.90;99.90;;;;;;5065959;28;20397;-66
2021/06/14 06:38:34;;;;;;;7.20;5.23;;;19.10;99.90;;;;;;5086414;28;20355;-66
2021/06/14 06:41:03;;;;;;;10.23;5.23;;;19.20;99.90;;;;;;5080561;28;20226;-66
2021/06/14 06:43:34;;;;;;;6.97;5.40;;;19.30;99.90;;;;;;5084973;28;20373;-65
2021/06/14 06:46:03;;;;;;;11.23;5.23;;;19.40;99.90;;;;;;5078725;28;20219;-65
2021/06/14 06:48:32;;;;;;;8.47;5.13;;;19.50;99.90;;;;;;5068630;28;20267;-65
2021/06/14 06:51:01;;;;;;;10.40;5.00;;;19.50;99.90;;;;;;5085616;28;20183;-66
2021/06/14 06:53:30;;;;;;;6.43;4.90;;;19.70;99.90;;;;;;5085407;28;20237;-66
2021/06/14 06:56:00;;;;;;;8.37;4.47;;;19.80;99.90;;;;;;5084644;28;20176;-65
2021/06/14 06:58:28;;;;;;;10.63;5.07;;;19.90;99.90;;;;;;5085905;28;20218;-65
2021/06/14 07:00:58;;;;;;;11.20;5.00;;;19.90;99.90;;;;;;5066033;28;20219;-65
2021/06/14 07:03:29;;;;;;;8.50;4.40;;;20.10;99.90;;;;;;5087419;28;20208;-66
2021/06/14 07:05:57;;;;;;;7.70;4.93;;;20.10;99.90;;;;;;5078996;28;20274;-65
2021/06/14 07:08:26;;;;;;;6.93;4.60;;;20.20;99.90;;;;;;5079899;28;20238;-66
2021/06/14 07:10:54;;;;;;;10.57;5.00;;;20.40;99.90;;;;;;5084927;28;20188;-65
2021/06/14 07:13:23;;;;;;;7.10;4.70;;;20.50;99.90;;;;;;5086102;28;20188;-66
2021/06/14 07:15:51;;;;;;;9.27;4.70;;;20.50;99.90;;;;;;5084811;28;20245;-66
2021/06/14 07:18:21;;;;;;;6.83;4.37;;;20.70;99.90;;;;;;5068064;28;20176;-65
2021/06/14 07:20:49;;;;;;;6.33;4.10;;;20.70;99.90;;;;;;5085174;28;20259;-65
2021/06/14 07:23:17;;;;;;;6.83;4.23;;;20.90;99.90;;;;;;5084424;28;20203;-65
2021/06/14 07:25:46;;;;;;;7.80;4.57;;;20.90;99.90;;;;;;5086085;28;20216;-66
2021/06/14 07:28:14;;;;;;;9.43;4.90;;;21.00;99.90;;;;;;5084047;28;20180;-66
2021/06/14 07:30:42;;;;;;;8.40;4.90;;;21.10;99.90;;;;;;5083685;28;20203;-66
2021/06/14 07:33:11;;;;;;;8.43;4.80;;;21.20;99.90;;;;;;5084388;28;20176;-65
2021/06/14 07:35:41;;;;;;;5.77;4.33;;;21.40;99.90;;;;;;5059201;28;20361;-66
2021/06/14 07:38:11;;;;;;;7.07;4.40;;;21.60;99.90;;;;;;5084106;28;20192;-65
2021/06/14 07:40:40;;;;;;;7.87;4.77;;;21.60;99.90;;;;;;5085396;28;20192;-66
2021/06/14 07:43:12;;;;;;;5.57;4.50;;;21.70;99.90;;;;;;5084100;28;20199;-65
2021/06/14 07:45:41;;;;;;;8.27;4.43;;;21.80;99.90;;;;;;5083487;28;20251;-66
2021/06/14 07:48:10;;;;;;;10.30;4.50;;;21.90;99.90;;;;;;5080287;28;20364;-66
2021/06/14 07:50:40;;;;;;;7.57;4.80;;;22.00;99.90;;;;;;5084365;28;20187;-65
2021/06/14 07:53:10;;;;;;;5.17;4.07;;;22.10;99.90;;;;;;5083762;28;20382;-65
2021/06/14 07:55:40;;;;;;;16.17;4.67;;;22.30;99.90;;;;;;5085459;28;20188;-66
2021/06/14 07:58:09;;;;;;;5.67;4.17;;;22.40;99.90;;;;;;5084993;28;20232;-65
2021/06/14 08:00:40;;;;;;;6.77;4.20;;;22.50;99.90;;;;;;5082064;28;20196;-66
2021/06/14 08:03:09;;;;;;;6.63;4.10;;;22.50;99.90;;;;;;5079921;28;20180;-65
2021/06/14 08:05:40;;;;;;;6.63;3.70;;;22.60;99.90;;;;;;5085592;28;20259;-65
2021/06/14 08:08:15;;;;;;;7.40;4.23;;;22.80;99.90;;;;;;5081679;28;20199;-66
2021/06/14 08:10:45;;;;;;;5.10;3.77;;;22.90;99.90;;;;;;5084775;28;20184;-67
2021/06/14 08:13:14;;;;;;;6.80;4.13;;;23.00;99.90;;;;;;5083340;28;20234;-66
2021/06/14 08:15:42;;;;;;;9.00;4.47;;;22.90;99.90;;;;;;5083872;28;20175;-66
2021/06/14 08:18:23;;;;;;;9.77;4.00;;;23.00;99.90;;;;;;5085952;28;20206;-66
2021/06/14 08:21:05;;;;;;;7.97;3.73;;;23.10;99.90;;;;;;5067229;28;20204;-65
2021/06/14 08:26:29;;;;;;;6.67;3.90;;;23.40;99.90;;;;;;5039141;28;20305;-65
2021/06/14 08:28:59;;;;;;;9.77;3.50;;;23.70;99.90;;;;;;5075246;28;20204;-65
2021/06/14 08:31:29;;;;;;;10.57;4.23;;;23.80;99.90;;;;;;5083930;28;20276;-66
2021/06/14 08:33:58;;;;;;;5.10;3.23;;;23.90;99.90;;;;;;5072074;28;20201;-65
2021/06/14 08:36:26;;;;;;;7.80;3.60;;;24.00;99.90;;;;;;5088379;28;20398;-66
2021/06/14 08:38:58;;;;;;;4.47;3.60;;;24.10;99.90;;;;;;5080257;28;20231;-66
2021/06/14 08:41:26;;;;;;;5.77;3.47;;;24.30;99.90;;;;;;5079075;28;20206;-68
2021/06/14 08:43:58;;;;;;;7.50;3.83;;;24.40;99.90;;;;;;5076304;28;20189;-70
2021/06/14 08:46:27;;;;;;;6.67;3.40;;;24.50;99.90;;;;;;5077790;28;20219;-69
2021/06/14 08:48:56;;;;;;;3.70;3.37;;;24.50;99.90;;;;;;5079546;28;20396;-69
2021/06/14 08:51:25;;;;;;;5.17;3.50;;;24.60;99.90;;;;;;5083220;28;20197;-69
2021/06/14 08:53:53;;;;;;;6.27;3.17;;;24.60;99.90;;;;;;5084042;28;20197;-69
2021/06/14 08:56:25;;;;;;;3.50;3.10;;;24.50;99.90;;;;;;5076032;28;20196;-69
2021/06/14 08:58:55;;;;;;;4.80;3.33;;;24.60;99.90;;;;;;5071039;28;20195;-70
2021/06/14 09:01:24;;;;;;;3.80;3.30;;;24.60;99.90;;;;;;5082648;28;20297;-70
2021/06/14 09:03:56;;;;;;;6.47;3.17;;;24.80;99.90;;;;;;5082104;28;20258;-69
2021/06/14 09:06:24;;;;;;;4.33;3.20;;;24.90;99.90;;;;;;5079807;28;20212;-69
2021/06/14 09:09:00;;;;;;;5.17;3.47;;;25.00;99.90;;;;;;5083213;28;20292;-70
2021/06/14 09:11:32;;;;;;;4.57;3.37;;;25.00;99.90;;;;;;5083644;28;20199;-69
2021/06/14 09:14:01;;;;;;;3.40;3.10;;;25.10;99.90;;;;;;5078196;28;20384;-68
2021/06/14 09:16:32;;;;;;;4.77;2.77;;;25.30;99.90;;;;;;5083773;28;20186;-69
2021/06/14 09:19:00;;;;;;;3.83;2.87;;;25.40;99.90;;;;;;5084811;28;20205;-67
2021/06/14 09:21:30;;;;;;;3.03;2.80;;;25.30;99.90;;;;;;5084685;28;20276;-68
2021/06/14 09:24:01;;;;;;;3.53;3.03;;;25.50;99.90;;;;;;5081826;28;20209;-69
2021/06/14 09:26:33;;;;;;;4.23;3.10;;;25.60;99.90;;;;;;5076378;28;20180;-66
2021/06/14 09:29:05;;;;;;;3.33;3.03;;;25.70;99.90;;;;;;5084275;28;20196;-66
2021/06/14 09:31:40;;;;;;;3.73;2.97;;;25.90;99.90;;;;;;5082536;28;20376;-66
2021/06/14 09:34:10;;;;;;;3.20;3.00;;;25.90;99.90;;;;;;5081755;28;20203;-66
2021/06/14 09:36:38;;;;;;;3.30;3.03;;;26.10;99.90;;;;;;5085283;28;20200;-66
2021/06/14 09:39:12;;;;;;;6.33;3.17;;;26.20;99.90;;;;;;5081181;28;20180;-66
2021/06/14 09:41:43;;;;;;;3.70;2.90;;;26.30;99.90;;;;;;5083349;28;20307;-66
2021/06/14 09:44:12;;;;;;;5.47;3.60;;;26.40;99.90;;;;;;5074881;28;20231;-66
2021/06/14 09:46:41;;;;;;;3.27;2.97;;;26.50;99.90;;;;;;5083559;28;20194;-66
2021/06/14 09:49:19;;;;;;;3.10;2.90;;;26.60;99.90;;;;;;5080854;28;20184;-66
2021/06/14 09:51:52;;;;;;;7.13;3.27;;;26.60;99.90;;;;;;5082593;28;20462;-66
2021/06/14 09:54:28;;;;;;;3.10;2.90;;;26.80;99.90;;;;;;5074091;28;20408;-66
2021/06/14 09:56:59;;;;;;;2.83;2.63;;;27.10;99.90;;;;;;5059112;28;20216;-65
2021/06/14 09:59:29;;;;;;;3.70;2.90;;;27.10;99.90;;;;;;5076096;28;20200;-66
2021/06/14 10:02:06;;;;;;;6.20;3.25;;;27.00;99.90;;;;;;5065900;28;20365;-66
2021/06/14 10:04:36;;;;;;;4.15;2.88;;;27.40;99.90;;;;;;5082350;28;20176;-65
2021/06/14 10:07:12;;;;;;;3.58;3.17;;;27.70;99.90;;;;;;5064064;28;20271;-66
2021/06/14 10:09:42;;;;;;;3.00;2.90;;;27.50;99.90;;;;;;5077277;28;20183;-66
2021/06/14 10:12:24;;;;;;;3.88;2.92;;;27.70;99.90;;;;;;5079532;28;20242;-66
2021/06/14 10:14:58;;;;;;;6.07;3.13;;;27.80;99.90;;;;;;5075162;28;20261;-66
2021/06/14 10:17:37;;;;;;;3.58;2.83;;;27.70;99.90;;;;;;5082338;28;20320;-66
2021/06/14 10:20:14;;;;;;;3.38;3.05;;;27.90;99.90;;;;;;5082389;28;20195;-65
2021/06/14 10:22:48;;;;;;;3.05;2.75;;;28.20;99.90;;;;;;5072417;28;20284;-66
2021/06/14 10:25:34;;;;;;;3.15;2.38;;;28.50;99.90;;;;;;5083042;28;20210;-66
2021/06/14 10:28:05;;;;;;;4.18;2.58;;;28.30;99.90;;;;;;5081272;28;20214;-64
2021/06/14 10:30:37;;;;;;;5.10;2.70;;;28.30;99.90;;;;;;5065803;28;20197;-67
2021/06/14 10:33:06;;;;;;;2.95;2.75;;;28.50;99.10;;;;;;5050079;28;20363;-65
2021/06/14 10:35:36;;;;;;;2.70;2.60;;;28.80;98.60;;;;;;5078765;28;20224;-67
2021/06/14 10:38:06;;;;;;;2.70;2.50;;;29.30;99.80;;;;;;5092067;28;20248;-66
2021/06/14 10:40:36;;;;;;;2.60;2.40;;;29.30;98.50;;;;;;5086068;28;20191;-66
2021/06/14 10:43:07;;;;;;;4.55;2.63;;;29.20;97.30;;;;;;5084314;28;20179;-66
2021/06/14 10:45:36;;;;;;;2.53;2.42;;;29.40;98.50;;;;;;5078627;28;20180;-66
2021/06/14 10:48:06;;;;;;;2.90;2.67;;;29.40;97.10;;;;;;5087588;28;20383;-65
2021/06/14 10:50:36;;;;;;;3.78;2.47;;;29.70;95.00;;;;;;5076954;28;20259;-66
2021/06/14 10:53:05;;;;;;;5.78;2.95;;;29.80;96.10;;;;;;5085086;28;20210;-66
2021/06/14 10:55:37;;;;;;;2.90;2.50;;;29.40;96.40;;;;;;5084383;28;20188;-66
2021/06/14 10:58:17;;;;;;;2.75;2.60;;;29.50;97.00;;;;;;5085638;28;20219;-66
2021/06/14 11:00:46;;;;;;;3.13;2.70;;;29.80;97.80;;;;;;5057503;28;20187;-66
2021/06/14 11:03:15;;;;;;;3.60;2.72;;;29.90;97.10;;;;;;5078251;28;20196;-66
2021/06/14 11:05:45;;;;;;;2.60;2.47;;;30.10;98.80;;;;;;5081095;28;20452;-66
2021/06/14 11:08:15;;;;;;;4.07;2.65;;;30.10;96.10;;;;;;5083508;28;20204;-66
2021/06/14 11:10:45;;;;;;;2.95;2.60;;;30.00;97.40;;;;;;5081480;28;20226;-66
2021/06/14 11:13:17;;;;;;;4.53;2.80;;;30.00;96.30;;;;;;5085980;28;20178;-66
2021/06/14 11:15:48;;;;;;;2.70;2.50;;;30.10;95.60;;;;;;5081992;28;20206;-66
2021/06/14 11:18:24;;;;;;;4.18;3.00;;;30.20;97.50;;;;;;5087601;28;20182;-66
2021/06/14 11:21:05;;;;;;;3.55;2.83;;;29.90;97.20;;;;;;5082748;28;20320;-66
2021/06/14 11:23:37;;;;;;;4.22;3.10;;;30.00;95.60;;;;;;5082658;28;20180;-65
2021/06/14 11:26:06;;;;;;;2.80;2.60;;;30.10;96.60;;;;;;5081627;28;20199;-63
2021/06/14 11:28:38;;;;;;;3.53;2.75;;;30.00;95.70;;;;;;5082950;28;20215;-65
2021/06/14 11:31:18;;;;;;;2.70;2.50;;;30.10;94.00;;;;;;5085928;28;20257;-65
2021/06/14 11:33:49;;;;;;;2.88;2.60;;;30.00;96.40;;;;;;5085097;28;20262;-65
2021/06/14 11:36:21;;;;;;;4.97;2.83;;;30.10;95.40;;;;;;5085291;28;20184;-65
2021/06/14 11:38:51;;;;;;;4.68;2.30;;;30.10;97.00;;;;;;5083171;28;20184;-65
2021/06/14 11:41:27;;;;;;;2.88;2.67;;;30.30;95.30;;;;;;5081523;28;20196;-65
2021/06/14 11:44:29;;;;;;;3.15;2.70;;;30.30;95.30;;;;;;5085004;28;20187;-65
2021/06/14 11:47:00;;;;;;;4.40;2.75;;;30.30;95.50;;;;;;5080764;28;20422;-65
2021/06/14 11:49:36;;;;;;;4.55;2.50;;;30.30;95.20;;;;;;5012750;28;20237;-65
2021/06/14 11:52:17;;;;;;;5.47;2.85;;;30.30;94.20;;;;;;5023614;28;20203;-64
2021/06/14 11:54:48;;;;;;;3.55;2.65;;;30.20;94.10;;;;;;5021180;28;20188;-65
2021/06/14 11:57:17;;;;;;;3.05;2.50;;;30.20;94.70;;;;;;5020643;28;20477;-65
2021/06/14 11:59:46;;;;;;;3.00;2.67;;;30.00;97.90;;;;;;5008350;28;21543;-65
2021/06/14 12:02:21;;;;;;;3.38;3.05;;;29.90;95.20;;;;;;5012790;28;20213;-65
2021/06/14 12:04:54;;;;;;;3.45;3.13;;;29.80;95.40;;;;;;5002689;28;20272;-65
2021/06/14 12:07:31;;;;;;;8.25;2.88;;;29.70;94.30;;;;;;5015781;28;20225;-65
2021/06/14 12:10:09;;;;;;;6.63;2.90;;;29.70;97.10;;;;;;5023717;28;20238;-65
2021/06/14 12:12:38;;;;;;;4.90;2.88;;;29.80;97.10;;;;;;5016003;28;20286;-65
2021/06/14 12:15:10;;;;;;;5.05;2.75;;;29.70;95.60;;;;;;5076592;28;20324;-64
2021/06/14 12:17:41;;;;;;;2.67;2.58;;;29.60;96.90;;;;;;5085633;28;20184;-64
2021/06/14 12:20:11;;;;;;;3.08;2.70;;;29.60;97.40;;;;;;5085387;28;20191;-64
2021/06/14 12:22:40;;;;;;;3.10;2.90;;;29.60;94.90;;;;;;5083685;28;20185;-64
2021/06/14 12:25:11;;;;;;;3.17;2.72;;;29.60;95.90;;;;;;5084208;28;20193;-64
2021/06/14 12:27:40;;;;;;;3.00;2.78;;;29.60;97.00;;;;;;5085695;28;20427;-65
2021/06/14 12:30:12;;;;;;;3.33;3.03;;;29.60;95.60;;;;;;5081079;28;20384;-66
2021/06/14 12:32:41;;;;;;;3.60;2.53;;;29.80;93.80;;;;;;5081398;28;20212;-65
2021/06/14 12:35:11;;;;;;;2.90;2.70;;;29.60;96.10;;;;;;5072866;28;20248;-64
2021/06/14 12:37:39;;;;;;;2.90;2.50;;;29.60;93.40;;;;;;5077738;28;20181;-64
2021/06/14 12:40:10;;;;;;;2.95;2.50;;;29.40;95.60;;;;;;5083662;28;20210;-63
2021/06/14 12:42:40;;;;;;;3.53;2.90;;;29.40;97.80;;;;;;5079392;28;20196;-64
2021/06/14 12:45:12;;;;;;;5.68;2.90;;;29.30;96.20;;;;;;5083719;28;20179;-63
2021/06/14 12:47:45;;;;;;;3.03;2.83;;;29.20;97.00;;;;;;5080749;28;20208;-64
2021/06/14 12:50:20;;;;;;;5.05;2.72;;;29.20;98.40;;;;;;5071507;28;20273;-64
2021/06/14 12:52:49;;;;;;;2.87;2.53;;;29.30;96.30;;;;;;5080710;28;20194;-64
2021/06/14 12:55:22;;;;;;;4.20;2.70;;;29.40;97.00;;;;;;5079698;28;20284;-64
2021/06/14 12:57:55;;;;;;;3.40;2.75;;;29.40;95.10;;;;;;5082896;28;20280;-64
2021/06/14 13:00:28;;;;;;;3.00;2.70;;;29.80;94.50;;;;;;5081651;28;20188;-64